sensor_id;sensor_type;location;lat;lon;timestamp;P1;durP1;ratioP1;P2;durP2;ratioP2
5900;SDS011;2976;49.764;9.796;2024-02-04T00:00:01;1.30;;;1.20;;
5900;SDS011;2976;49.764;9.796;2024-02-04T00:02:26;1.33;;;1.23;;
5900;SDS011;2976;49.764;9.796;2024-02-04T00:04:52;2.30;;;1.50;;
5900;SDS011;2976;49.764;9.796;2024-02-04T00:07:17;1.27;;;1.27;;
5900;SDS011;2976;49.764;9.796;2024-02-04T00:09:43;1.40;;;1.23;;
5900;SDS011;2976;49.764;9.796;2024-02-04T00:12:11;1.73;;;1.23;;
5900;SDS011;2976;49.764;9.796;2024-02-04T00:14:37;2.03;;;0.93;;
5900;SDS011;2976;49.764;9.796;2024-02-04T00:17:03;1.10;;;1.10;;
5900;SDS011;2976;49.764;9.796;2024-02-04T00:19:28;1.40;;;1.30;;
5900;SDS011;2976;49.764;9.796;2024-02-04T00:21:54;1.13;;;1.13;;
5900;SDS011;2976;49.764;9.796;2024-02-04T00:24:19;1.63;;;1.53;;
5900;SDS011;2976;49.764;9.796;2024-02-04T00:26:45;1.43;;;1.43;;
5900;SDS011;2976;49.764;9.796;2024-02-04T00:29:11;1.17;;;1.07;;
5900;SDS011;2976;49.764;9.796;2024-02-04T00:31:36;2.80;;;1.30;;
5900;SDS011;2976;49.764;9.796;2024-02-04T00:34:02;1.40;;;1.33;;
5900;SDS011;2976;49.764;9.796;2024-02-04T00:36:28;1.33;;;1.23;;
5900;SDS011;2976;49.764;9.796;2024-02-04T00:38:53;1.17;;;1.17;;
5900;SDS011;2976;49.764;9.796;2024-02-04T00:41:19;1.63;;;1.50;;
5900;SDS011;2976;49.764;9.796;2024-02-04T00:43:44;1.63;;;1.47;;
5900;SDS011;2976;49.764;9.796;2024-02-04T00:46:10;1.73;;;1.63;;
5900;SDS011;2976;49.764;9.796;2024-02-04T00:48:36;1.70;;;1.60;;
5900;SDS011;2976;49.764;9.796;2024-02-04T00:51:02;3.67;;;2.13;;
5900;SDS011;2976;49.764;9.796;2024-02-04T00:53:28;1.80;;;1.70;;
5900;SDS011;2976;49.764;9.796;2024-02-04T00:56:08;2.20;;;2.00;;
5900;SDS011;2976;49.764;9.796;2024-02-04T00:58:34;1.90;;;1.80;;
5900;SDS011;2976;49.764;9.796;2024-02-04T01:01:00;2.23;;;1.97;;
5900;SDS011;2976;49.764;9.796;2024-02-04T01:03:25;2.13;;;1.90;;
5900;SDS011;2976;49.764;9.796;2024-02-04T01:05:51;2.40;;;1.60;;
5900;SDS011;2976;49.764;9.796;2024-02-04T01:08:17;1.60;;;1.50;;
5900;SDS011;2976;49.764;9.796;2024-02-04T01:10:42;1.20;;;1.20;;
5900;SDS011;2976;49.764;9.796;2024-02-04T01:13:08;2.07;;;1.97;;
5900;SDS011;2976;49.764;9.796;2024-02-04T01:15:33;2.13;;;1.93;;
5900;SDS011;2976;49.764;9.796;2024-02-04T01:17:59;1.60;;;1.50;;
5900;SDS011;2976;49.764;9.796;2024-02-04T01:20:25;1.60;;;1.50;;
5900;SDS011;2976;49.764;9.796;2024-02-04T01:22:50;2.00;;;1.80;;
5900;SDS011;2976;49.764;9.796;2024-02-04T01:25:16;1.67;;;1.53;;
5900;SDS011;2976;49.764;9.796;2024-02-04T01:27:42;1.87;;;1.77;;
5900;SDS011;2976;49.764;9.796;2024-02-04T01:30:07;1.90;;;1.80;;
5900;SDS011;2976;49.764;9.796;2024-02-04T01:32:33;1.97;;;1.87;;
5900;SDS011;2976;49.764;9.796;2024-02-04T01:34:59;2.27;;;2.07;;
5900;SDS011;2976;49.764;9.796;2024-02-04T01:37:24;2.83;;;2.10;;
5900;SDS011;2976;49.764;9.796;2024-02-04T01:39:50;2.20;;;2.00;;
5900;SDS011;2976;49.764;9.796;2024-02-04T01:42:15;1.73;;;1.63;;
5900;SDS011;2976;49.764;9.796;2024-02-04T01:44:41;2.20;;;2.00;;
5900;SDS011;2976;49.764;9.796;2024-02-04T01:47:07;2.13;;;1.93;;
5900;SDS011;2976;49.764;9.796;2024-02-04T01:49:33;3.43;;;2.40;;
5900;SDS011;2976;49.764;9.796;2024-02-04T01:51:59;3.17;;;1.73;;
5900;SDS011;2976;49.764;9.796;2024-02-04T01:54:25;4.90;;;2.23;;
5900;SDS011;2976;49.764;9.796;2024-02-04T01:56:52;1.97;;;1.87;;
5900;SDS011;2976;49.764;9.796;2024-02-04T01:59:20;2.73;;;2.47;;
5900;SDS011;2976;49.764;9.796;2024-02-04T02:01:47;2.17;;;2.07;;
5900;SDS011;2976;49.764;9.796;2024-02-04T02:04:13;1.90;;;1.80;;
5900;SDS011;2976;49.764;9.796;2024-02-04T02:06:39;2.00;;;1.90;;
5900;SDS011;2976;49.764;9.796;2024-02-04T02:09:06;1.43;;;1.43;;
5900;SDS011;2976;49.764;9.796;2024-02-04T02:11:45;3.23;;;1.93;;
5900;SDS011;2976;49.764;9.796;2024-02-04T02:14:14;2.67;;;2.17;;
5900;SDS011;2976;49.764;9.796;2024-02-04T02:16:44;2.00;;;1.90;;
5900;SDS011;2976;49.764;9.796;2024-02-04T02:26:59;1.80;;;1.70;;
5900;SDS011;2976;49.764;9.796;2024-02-04T02:29:25;2.00;;;1.90;;
5900;SDS011;2976;49.764;9.796;2024-02-04T02:31:50;2.00;;;1.90;;
5900;SDS011;2976;49.764;9.796;2024-02-04T02:34:16;1.83;;;1.70;;
5900;SDS011;2976;49.764;9.796;2024-02-04T02:36:43;1.90;;;1.60;;
5900;SDS011;2976;49.764;9.796;2024-02-04T02:39:21;2.30;;;1.87;;
5900;SDS011;2976;49.764;9.796;2024-02-04T02:41:50;1.80;;;1.70;;
5900;SDS011;2976;49.764;9.796;2024-02-04T02:44:19;1.73;;;1.60;;
5900;SDS011;2976;49.764;9.796;2024-02-04T02:46:46;1.67;;;1.57;;
5900;SDS011;2976;49.764;9.796;2024-02-04T02:49:13;2.80;;;1.50;;
5900;SDS011;2976;49.764;9.796;2024-02-04T02:51:39;1.40;;;1.40;;
5900;SDS011;2976;49.764;9.796;2024-02-04T02:54:04;1.63;;;1.53;;
5900;SDS011;2976;49.764;9.796;2024-02-04T02:56:30;1.53;;;1.43;;
5900;SDS011;2976;49.764;9.796;2024-02-04T02:58:55;1.80;;;1.70;;
5900;SDS011;2976;49.764;9.796;2024-02-04T03:01:21;5.37;;;1.80;;
5900;SDS011;2976;49.764;9.796;2024-02-04T03:03:46;1.20;;;1.20;;
5900;SDS011;2976;49.764;9.796;2024-02-04T03:06:12;1.53;;;1.43;;
5900;SDS011;2976;49.764;9.796;2024-02-04T03:08:37;1.60;;;1.50;;
5900;SDS011;2976;49.764;9.796;2024-02-04T03:11:03;1.57;;;1.47;;
5900;SDS011;2976;49.764;9.796;2024-02-04T03:13:28;2.20;;;2.10;;
5900;SDS011;2976;49.764;9.796;2024-02-04T03:15:55;1.57;;;1.47;;
5900;SDS011;2976;49.764;9.796;2024-02-04T03:18:21;1.27;;;1.27;;
5900;SDS011;2976;49.764;9.796;2024-02-04T03:20:46;1.53;;;1.43;;
5900;SDS011;2976;49.764;9.796;2024-02-04T03:23:12;2.03;;;1.93;;
5900;SDS011;2976;49.764;9.796;2024-02-04T03:25:37;2.13;;;2.03;;
5900;SDS011;2976;49.764;9.796;2024-02-04T03:28:03;2.20;;;2.10;;
5900;SDS011;2976;49.764;9.796;2024-02-04T03:30:29;2.33;;;2.13;;
5900;SDS011;2976;49.764;9.796;2024-02-04T03:32:55;1.40;;;1.37;;
5900;SDS011;2976;49.764;9.796;2024-02-04T03:35:20;2.63;;;1.57;;
5900;SDS011;2976;49.764;9.796;2024-02-04T03:37:46;2.03;;;1.93;;
5900;SDS011;2976;49.764;9.796;2024-02-04T03:40:12;2.60;;;2.40;;
5900;SDS011;2976;49.764;9.796;2024-02-04T03:42:37;2.47;;;2.27;;
5900;SDS011;2976;49.764;9.796;2024-02-04T03:45:03;2.00;;;1.90;;
5900;SDS011;2976;49.764;9.796;2024-02-04T03:47:29;2.50;;;1.90;;
5900;SDS011;2976;49.764;9.796;2024-02-04T03:49:55;2.37;;;2.17;;
5900;SDS011;2976;49.764;9.796;2024-02-04T03:52:20;1.53;;;1.50;;
5900;SDS011;2976;49.764;9.796;2024-02-04T03:54:46;2.20;;;2.00;;
5900;SDS011;2976;49.764;9.796;2024-02-04T03:57:11;2.10;;;2.00;;
5900;SDS011;2976;49.764;9.796;2024-02-04T03:59:37;2.40;;;2.20;;
5900;SDS011;2976;49.764;9.796;2024-02-04T04:02:02;2.63;;;1.83;;
5900;SDS011;2976;49.764;9.796;2024-02-04T04:04:28;2.10;;;2.00;;
5900;SDS011;2976;49.764;9.796;2024-02-04T04:06:54;2.30;;;2.13;;
5900;SDS011;2976;49.764;9.796;2024-02-04T04:09:19;2.70;;;2.50;;
5900;SDS011;2976;49.764;9.796;2024-02-04T04:11:45;2.77;;;2.57;;
5900;SDS011;2976;49.764;9.796;2024-02-04T04:14:10;4.17;;;3.37;;
5900;SDS011;2976;49.764;9.796;2024-02-04T04:16:36;4.17;;;2.80;;
5900;SDS011;2976;49.764;9.796;2024-02-04T04:19:01;3.33;;;3.03;;
5900;SDS011;2976;49.764;9.796;2024-02-04T04:21:27;5.37;;;3.37;;
5900;SDS011;2976;49.764;9.796;2024-02-04T04:23:52;5.30;;;3.63;;
5900;SDS011;2976;49.764;9.796;2024-02-04T04:26:18;5.27;;;3.83;;
5900;SDS011;2976;49.764;9.796;2024-02-04T04:28:44;3.53;;;3.23;;
5900;SDS011;2976;49.764;9.796;2024-02-04T04:31:09;5.47;;;3.63;;
5900;SDS011;2976;49.764;9.796;2024-02-04T04:33:35;5.83;;;3.90;;
5900;SDS011;2976;49.764;9.796;2024-02-04T04:36:01;3.53;;;3.23;;
5900;SDS011;2976;49.764;9.796;2024-02-04T04:38:27;4.43;;;3.13;;
5900;SDS011;2976;49.764;9.796;2024-02-04T04:40:53;3.40;;;3.10;;
5900;SDS011;2976;49.764;9.796;2024-02-04T04:43:18;3.07;;;2.87;;
5900;SDS011;2976;49.764;9.796;2024-02-04T04:45:44;3.03;;;2.70;;
5900;SDS011;2976;49.764;9.796;2024-02-04T04:48:09;5.00;;;3.10;;
5900;SDS011;2976;49.764;9.796;2024-02-04T04:50:35;3.23;;;2.60;;
5900;SDS011;2976;49.764;9.796;2024-02-04T04:53:01;4.60;;;3.40;;
5900;SDS011;2976;49.764;9.796;2024-02-04T04:55:27;3.53;;;2.80;;
5900;SDS011;2976;49.764;9.796;2024-02-04T04:57:52;3.30;;;2.53;;
5900;SDS011;2976;49.764;9.796;2024-02-04T05:00:18;2.20;;;2.00;;
5900;SDS011;2976;49.764;9.796;2024-02-04T05:02:44;3.20;;;2.23;;
5900;SDS011;2976;49.764;9.796;2024-02-04T05:05:10;2.70;;;2.50;;
5900;SDS011;2976;49.764;9.796;2024-02-04T05:07:36;3.10;;;2.53;;
5900;SDS011;2976;49.764;9.796;2024-02-04T05:10:02;2.93;;;2.73;;
5900;SDS011;2976;49.764;9.796;2024-02-04T05:12:28;2.57;;;2.17;;
5900;SDS011;2976;49.764;9.796;2024-02-04T05:14:54;2.30;;;2.10;;
5900;SDS011;2976;49.764;9.796;2024-02-04T05:17:19;2.27;;;2.17;;
5900;SDS011;2976;49.764;9.796;2024-02-04T05:19:45;2.57;;;2.37;;
5900;SDS011;2976;49.764;9.796;2024-02-04T05:22:10;2.83;;;2.43;;
5900;SDS011;2976;49.764;9.796;2024-02-04T05:24:36;2.10;;;1.90;;
5900;SDS011;2976;49.764;9.796;2024-02-04T05:27:02;2.20;;;2.00;;
5900;SDS011;2976;49.764;9.796;2024-02-04T05:29:27;2.37;;;2.20;;
5900;SDS011;2976;49.764;9.796;2024-02-04T05:31:53;2.23;;;2.13;;
5900;SDS011;2976;49.764;9.796;2024-02-04T05:34:18;1.47;;;1.33;;
5900;SDS011;2976;49.764;9.796;2024-02-04T05:36:44;2.10;;;2.00;;
5900;SDS011;2976;49.764;9.796;2024-02-04T05:39:12;1.90;;;1.80;;
5900;SDS011;2976;49.764;9.796;2024-02-04T05:41:39;2.30;;;2.10;;
5900;SDS011;2976;49.764;9.796;2024-02-04T05:44:05;2.27;;;2.17;;
5900;SDS011;2976;49.764;9.796;2024-02-04T05:46:31;2.37;;;2.23;;
5900;SDS011;2976;49.764;9.796;2024-02-04T05:48:57;2.33;;;2.20;;
5900;SDS011;2976;49.764;9.796;2024-02-04T05:51:23;2.47;;;2.27;;
5900;SDS011;2976;49.764;9.796;2024-02-04T05:53:49;2.30;;;2.10;;
5900;SDS011;2976;49.764;9.796;2024-02-04T05:56:14;3.93;;;3.43;;
5900;SDS011;2976;49.764;9.796;2024-02-04T05:58:40;2.73;;;2.50;;
5900;SDS011;2976;49.764;9.796;2024-02-04T06:01:05;3.77;;;3.10;;
5900;SDS011;2976;49.764;9.796;2024-02-04T06:03:31;3.50;;;2.90;;
5900;SDS011;2976;49.764;9.796;2024-02-04T06:05:56;3.30;;;2.90;;
5900;SDS011;2976;49.764;9.796;2024-02-04T06:08:22;4.80;;;3.40;;
5900;SDS011;2976;49.764;9.796;2024-02-04T06:10:47;3.90;;;3.33;;
5900;SDS011;2976;49.764;9.796;2024-02-04T06:13:13;3.70;;;3.40;;
5900;SDS011;2976;49.764;9.796;2024-02-04T06:15:39;4.33;;;3.37;;
5900;SDS011;2976;49.764;9.796;2024-02-04T06:18:05;3.80;;;3.40;;
5900;SDS011;2976;49.764;9.796;2024-02-04T06:20:30;6.07;;;3.20;;
5900;SDS011;2976;49.764;9.796;2024-02-04T06:22:56;4.73;;;2.50;;
5900;SDS011;2976;49.764;9.796;2024-02-04T06:25:23;3.27;;;2.97;;
5900;SDS011;2976;49.764;9.796;2024-02-04T06:27:48;2.67;;;2.23;;
5900;SDS011;2976;49.764;9.796;2024-02-04T06:30:14;2.40;;;2.20;;
5900;SDS011;2976;49.764;9.796;2024-02-04T06:32:40;2.70;;;2.50;;
5900;SDS011;2976;49.764;9.796;2024-02-04T06:35:06;2.87;;;2.27;;
5900;SDS011;2976;49.764;9.796;2024-02-04T06:37:32;1.50;;;1.40;;
5900;SDS011;2976;49.764;9.796;2024-02-04T06:39:57;1.63;;;1.50;;
5900;SDS011;2976;49.764;9.796;2024-02-04T06:42:23;1.60;;;1.50;;
5900;SDS011;2976;49.764;9.796;2024-02-04T06:44:48;3.00;;;2.07;;
5900;SDS011;2976;49.764;9.796;2024-02-04T06:47:14;1.83;;;1.73;;
5900;SDS011;2976;49.764;9.796;2024-02-04T06:49:43;1.43;;;1.30;;
5900;SDS011;2976;49.764;9.796;2024-02-04T06:52:09;1.80;;;1.43;;
5900;SDS011;2976;49.764;9.796;2024-02-04T06:54:34;6.00;;;1.40;;
5900;SDS011;2976;49.764;9.796;2024-02-04T06:57:00;1.27;;;1.17;;
5900;SDS011;2976;49.764;9.796;2024-02-04T06:59:25;1.43;;;1.33;;
5900;SDS011;2976;49.764;9.796;2024-02-04T07:01:51;1.17;;;1.13;;
5900;SDS011;2976;49.764;9.796;2024-02-04T07:04:18;3.03;;;1.30;;
5900;SDS011;2976;49.764;9.796;2024-02-04T07:06:46;1.27;;;1.17;;
5900;SDS011;2976;49.764;9.796;2024-02-04T07:09:12;1.87;;;1.50;;
5900;SDS011;2976;49.764;9.796;2024-02-04T07:11:37;1.10;;;1.10;;
5900;SDS011;2976;49.764;9.796;2024-02-04T07:14:03;1.37;;;1.37;;
5900;SDS011;2976;49.764;9.796;2024-02-04T07:16:30;1.30;;;1.30;;
5900;SDS011;2976;49.764;9.796;2024-02-04T07:18:56;1.10;;;1.10;;
5900;SDS011;2976;49.764;9.796;2024-02-04T07:21:22;1.80;;;1.70;;
5900;SDS011;2976;49.764;9.796;2024-02-04T07:23:48;2.00;;;1.70;;
5900;SDS011;2976;49.764;9.796;2024-02-04T07:26:13;1.63;;;1.53;;
5900;SDS011;2976;49.764;9.796;2024-02-04T07:28:39;1.60;;;1.50;;
5900;SDS011;2976;49.764;9.796;2024-02-04T07:31:04;1.70;;;1.60;;
5900;SDS011;2976;49.764;9.796;2024-02-04T07:33:30;1.53;;;1.43;;
5900;SDS011;2976;49.764;9.796;2024-02-04T07:35:55;4.63;;;1.73;;
5900;SDS011;2976;49.764;9.796;2024-02-04T07:38:21;1.40;;;1.30;;
5900;SDS011;2976;49.764;9.796;2024-02-04T07:40:47;1.30;;;1.20;;
5900;SDS011;2976;49.764;9.796;2024-02-04T07:43:12;1.47;;;1.37;;
5900;SDS011;2976;49.764;9.796;2024-02-04T07:45:38;1.50;;;1.40;;
5900;SDS011;2976;49.764;9.796;2024-02-04T07:48:04;1.37;;;1.27;;
5900;SDS011;2976;49.764;9.796;2024-02-04T07:50:29;0.80;;;0.80;;
5900;SDS011;2976;49.764;9.796;2024-02-04T07:52:55;0.87;;;0.83;;
5900;SDS011;2976;49.764;9.796;2024-02-04T07:55:21;0.90;;;0.90;;
5900;SDS011;2976;49.764;9.796;2024-02-04T07:57:46;1.30;;;1.20;;
5900;SDS011;2976;49.764;9.796;2024-02-04T08:00:12;0.80;;;0.80;;
5900;SDS011;2976;49.764;9.796;2024-02-04T08:02:38;1.13;;;1.13;;
5900;SDS011;2976;49.764;9.796;2024-02-04T08:05:04;0.70;;;0.70;;
5900;SDS011;2976;49.764;9.796;2024-02-04T08:07:30;1.17;;;1.17;;
5900;SDS011;2976;49.764;9.796;2024-02-04T08:09:55;0.93;;;0.90;;
5900;SDS011;2976;49.764;9.796;2024-02-04T08:12:21;0.90;;;0.90;;
5900;SDS011;2976;49.764;9.796;2024-02-04T08:14:47;1.10;;;1.00;;
5900;SDS011;2976;49.764;9.796;2024-02-04T08:17:13;0.70;;;0.70;;
5900;SDS011;2976;49.764;9.796;2024-02-04T08:19:38;0.90;;;0.90;;
5900;SDS011;2976;49.764;9.796;2024-02-04T08:22:04;0.93;;;0.93;;
5900;SDS011;2976;49.764;9.796;2024-02-04T08:24:30;0.97;;;0.90;;
5900;SDS011;2976;49.764;9.796;2024-02-04T08:26:57;1.20;;;1.10;;
5900;SDS011;2976;49.764;9.796;2024-02-04T08:29:23;1.27;;;1.23;;
5900;SDS011;2976;49.764;9.796;2024-02-04T08:31:49;1.43;;;1.33;;
5900;SDS011;2976;49.764;9.796;2024-02-04T08:34:15;2.60;;;1.60;;
5900;SDS011;2976;49.764;9.796;2024-02-04T08:36:41;2.30;;;1.27;;
5900;SDS011;2976;49.764;9.796;2024-02-04T08:39:07;1.73;;;1.40;;
5900;SDS011;2976;49.764;9.796;2024-02-04T08:41:34;1.53;;;1.43;;
5900;SDS011;2976;49.764;9.796;2024-02-04T08:43:59;1.37;;;1.27;;
5900;SDS011;2976;49.764;9.796;2024-02-04T08:46:25;13.23;;;1.70;;
5900;SDS011;2976;49.764;9.796;2024-02-04T08:48:50;2.40;;;1.70;;
5900;SDS011;2976;49.764;9.796;2024-02-04T08:51:16;1.70;;;1.60;;
5900;SDS011;2976;49.764;9.796;2024-02-04T08:53:43;2.00;;;1.80;;
5900;SDS011;2976;49.764;9.796;2024-02-04T08:56:08;2.13;;;2.03;;
5900;SDS011;2976;49.764;9.796;2024-02-04T08:58:34;1.40;;;1.40;;
5900;SDS011;2976;49.764;9.796;2024-02-04T09:01:02;4.20;;;1.30;;
5900;SDS011;2976;49.764;9.796;2024-02-04T09:03:28;1.60;;;1.50;;
5900;SDS011;2976;49.764;9.796;2024-02-04T09:05:54;1.90;;;1.80;;
5900;SDS011;2976;49.764;9.796;2024-02-04T09:08:20;1.17;;;1.17;;
5900;SDS011;2976;49.764;9.796;2024-02-04T09:10:45;1.17;;;1.17;;
5900;SDS011;2976;49.764;9.796;2024-02-04T09:13:11;1.10;;;1.10;;
5900;SDS011;2976;49.764;9.796;2024-02-04T09:15:36;3.00;;;1.20;;
5900;SDS011;2976;49.764;9.796;2024-02-04T09:18:02;1.03;;;1.00;;
5900;SDS011;2976;49.764;9.796;2024-02-04T09:20:28;2.60;;;1.00;;
5900;SDS011;2976;49.764;9.796;2024-02-04T09:22:53;0.63;;;0.63;;
5900;SDS011;2976;49.764;9.796;2024-02-04T09:25:19;1.00;;;0.90;;
5900;SDS011;2976;49.764;9.796;2024-02-04T09:27:44;0.90;;;0.90;;
5900;SDS011;2976;49.764;9.796;2024-02-04T09:30:10;0.80;;;0.80;;
5900;SDS011;2976;49.764;9.796;2024-02-04T09:32:36;0.90;;;0.90;;
5900;SDS011;2976;49.764;9.796;2024-02-04T09:35:02;0.80;;;0.63;;
5900;SDS011;2976;49.764;9.796;2024-02-04T09:37:28;0.90;;;0.60;;
5900;SDS011;2976;49.764;9.796;2024-02-04T09:39:54;0.87;;;0.60;;
5900;SDS011;2976;49.764;9.796;2024-02-04T09:42:20;0.80;;;0.80;;
5900;SDS011;2976;49.764;9.796;2024-02-04T09:44:49;1.17;;;0.70;;
5900;SDS011;2976;49.764;9.796;2024-02-04T09:47:15;0.80;;;0.63;;
5900;SDS011;2976;49.764;9.796;2024-02-04T09:49:41;0.60;;;0.60;;
5900;SDS011;2976;49.764;9.796;2024-02-04T09:52:08;0.73;;;0.63;;
5900;SDS011;2976;49.764;9.796;2024-02-04T09:54:40;0.40;;;0.40;;
5900;SDS011;2976;49.764;9.796;2024-02-04T09:57:14;0.40;;;0.40;;
5900;SDS011;2976;49.764;9.796;2024-02-04T09:59:41;0.60;;;0.60;;
5900;SDS011;2976;49.764;9.796;2024-02-04T10:02:08;0.80;;;0.57;;
5900;SDS011;2976;49.764;9.796;2024-02-04T10:04:35;0.50;;;0.50;;
5900;SDS011;2976;49.764;9.796;2024-02-04T10:07:00;0.50;;;0.50;;
5900;SDS011;2976;49.764;9.796;2024-02-04T10:09:27;0.57;;;0.57;;
5900;SDS011;2976;49.764;9.796;2024-02-04T10:11:52;0.50;;;0.50;;
5900;SDS011;2976;49.764;9.796;2024-02-04T10:14:18;1.17;;;0.50;;
5900;SDS011;2976;49.764;9.796;2024-02-04T10:16:45;0.60;;;0.47;;
5900;SDS011;2976;49.764;9.796;2024-02-04T10:19:11;0.50;;;0.50;;
5900;SDS011;2976;49.764;9.796;2024-02-04T10:21:37;1.13;;;0.67;;
5900;SDS011;2976;49.764;9.796;2024-02-04T10:24:02;0.50;;;0.50;;
5900;SDS011;2976;49.764;9.796;2024-02-04T10:26:28;0.40;;;0.40;;
5900;SDS011;2976;49.764;9.796;2024-02-04T10:28:57;0.37;;;0.37;;
5900;SDS011;2976;49.764;9.796;2024-02-04T10:31:23;0.40;;;0.40;;
5900;SDS011;2976;49.764;9.796;2024-02-04T10:33:49;0.60;;;0.60;;
5900;SDS011;2976;49.764;9.796;2024-02-04T10:36:15;0.83;;;0.70;;
5900;SDS011;2976;49.764;9.796;2024-02-04T10:38:40;1.60;;;0.40;;
5900;SDS011;2976;49.764;9.796;2024-02-04T10:41:06;0.90;;;0.90;;
5900;SDS011;2976;49.764;9.796;2024-02-04T10:43:32;2.13;;;0.50;;
5900;SDS011;2976;49.764;9.796;2024-02-04T10:46:08;0.60;;;0.60;;
5900;SDS011;2976;49.764;9.796;2024-02-04T10:48:38;0.63;;;0.53;;
5900;SDS011;2976;49.764;9.796;2024-02-04T10:51:14;0.57;;;0.57;;
5900;SDS011;2976;49.764;9.796;2024-02-04T10:53:44;0.47;;;0.47;;
5900;SDS011;2976;49.764;9.796;2024-02-04T10:56:13;0.53;;;0.53;;
5900;SDS011;2976;49.764;9.796;2024-02-04T10:58:47;0.50;;;0.50;;
5900;SDS011;2976;49.764;9.796;2024-02-04T11:01:13;1.07;;;0.63;;
5900;SDS011;2976;49.764;9.796;2024-02-04T11:03:39;0.40;;;0.40;;
5900;SDS011;2976;49.764;9.796;2024-02-04T11:06:09;0.40;;;0.40;;
5900;SDS011;2976;49.764;9.796;2024-02-04T11:08:37;1.03;;;0.50;;
5900;SDS011;2976;49.764;9.796;2024-02-04T11:11:03;0.50;;;0.50;;
5900;SDS011;2976;49.764;9.796;2024-02-04T11:13:29;0.30;;;0.30;;
5900;SDS011;2976;49.764;9.796;2024-02-04T11:16:01;0.70;;;0.70;;
5900;SDS011;2976;49.764;9.796;2024-02-04T11:27:02;5.03;;;0.50;;
5900;SDS011;2976;49.764;9.796;2024-02-04T11:29:28;0.50;;;0.50;;
5900;SDS011;2976;49.764;9.796;2024-02-04T11:31:54;1.47;;;0.60;;
5900;SDS011;2976;49.764;9.796;2024-02-04T11:34:20;0.77;;;0.77;;
5900;SDS011;2976;49.764;9.796;2024-02-04T11:36:46;3.43;;;1.30;;
5900;SDS011;2976;49.764;9.796;2024-02-04T11:39:12;1.00;;;1.00;;
5900;SDS011;2976;49.764;9.796;2024-02-04T11:41:45;0.90;;;0.90;;
5900;SDS011;2976;49.764;9.796;2024-02-04T11:44:12;0.70;;;0.67;;
5900;SDS011;2976;49.764;9.796;2024-02-04T11:46:37;0.60;;;0.60;;
5900;SDS011;2976;49.764;9.796;2024-02-04T11:49:03;0.50;;;0.50;;
5900;SDS011;2976;49.764;9.796;2024-02-04T11:51:39;0.43;;;0.43;;
5900;SDS011;2976;49.764;9.796;2024-02-04T11:54:06;0.43;;;0.43;;
5900;SDS011;2976;49.764;9.796;2024-02-04T11:56:32;0.93;;;0.93;;
5900;SDS011;2976;49.764;9.796;2024-02-04T11:58:58;0.97;;;0.60;;
5900;SDS011;2976;49.764;9.796;2024-02-04T12:01:24;0.60;;;0.60;;
5900;SDS011;2976;49.764;9.796;2024-02-04T12:03:50;0.60;;;0.60;;
5900;SDS011;2976;49.764;9.796;2024-02-04T12:06:17;0.50;;;0.50;;
5900;SDS011;2976;49.764;9.796;2024-02-04T12:08:43;0.70;;;0.70;;
5900;SDS011;2976;49.764;9.796;2024-02-04T12:11:08;0.80;;;0.50;;
5900;SDS011;2976;49.764;9.796;2024-02-04T12:13:34;0.50;;;0.50;;
5900;SDS011;2976;49.764;9.796;2024-02-04T12:16:03;0.30;;;0.30;;
5900;SDS011;2976;49.764;9.796;2024-02-04T12:18:30;0.57;;;0.57;;
5900;SDS011;2976;49.764;9.796;2024-02-04T12:20:56;0.40;;;0.40;;
5900;SDS011;2976;49.764;9.796;2024-02-04T12:23:21;0.40;;;0.40;;
5900;SDS011;2976;49.764;9.796;2024-02-04T12:25:48;0.40;;;0.40;;
5900;SDS011;2976;49.764;9.796;2024-02-04T12:28:14;0.43;;;0.43;;
5900;SDS011;2976;49.764;9.796;2024-02-04T12:30:40;0.50;;;0.43;;
5900;SDS011;2976;49.764;9.796;2024-02-04T12:33:05;0.47;;;0.47;;
5900;SDS011;2976;49.764;9.796;2024-02-04T12:35:31;0.37;;;0.37;;
5900;SDS011;2976;49.764;9.796;2024-02-04T12:37:58;6.00;;;0.47;;
5900;SDS011;2976;49.764;9.796;2024-02-04T12:40:25;0.30;;;0.30;;
5900;SDS011;2976;49.764;9.796;2024-02-04T12:42:54;0.40;;;0.40;;
5900;SDS011;2976;49.764;9.796;2024-02-04T12:45:26;0.40;;;0.40;;
5900;SDS011;2976;49.764;9.796;2024-02-04T12:47:53;0.40;;;0.40;;
5900;SDS011;2976;49.764;9.796;2024-02-04T12:50:21;1.03;;;0.67;;
5900;SDS011;2976;49.764;9.796;2024-02-04T12:52:47;0.70;;;0.37;;
5900;SDS011;2976;49.764;9.796;2024-02-04T12:55:25;0.30;;;0.30;;
5900;SDS011;2976;49.764;9.796;2024-02-04T12:58:03;0.30;;;0.30;;
5900;SDS011;2976;49.764;9.796;2024-02-04T13:00:43;0.40;;;0.40;;
5900;SDS011;2976;49.764;9.796;2024-02-04T13:03:09;0.77;;;0.50;;
5900;SDS011;2976;49.764;9.796;2024-02-04T13:05:35;0.43;;;0.43;;
5900;SDS011;2976;49.764;9.796;2024-02-04T13:08:02;0.50;;;0.50;;
5900;SDS011;2976;49.764;9.796;2024-02-04T13:10:30;0.30;;;0.30;;
5900;SDS011;2976;49.764;9.796;2024-02-04T13:13:08;2.10;;;0.40;;
5900;SDS011;2976;49.764;9.796;2024-02-04T13:15:42;0.53;;;0.53;;
5900;SDS011;2976;49.764;9.796;2024-02-04T13:18:09;0.40;;;0.40;;
5900;SDS011;2976;49.764;9.796;2024-02-04T13:20:36;0.50;;;0.50;;
5900;SDS011;2976;49.764;9.796;2024-02-04T13:23:03;0.40;;;0.30;;
5900;SDS011;2976;49.764;9.796;2024-02-04T13:25:30;0.50;;;0.50;;
5900;SDS011;2976;49.764;9.796;2024-02-04T13:27:56;0.40;;;0.40;;
5900;SDS011;2976;49.764;9.796;2024-02-04T13:30:22;0.50;;;0.50;;
5900;SDS011;2976;49.764;9.796;2024-02-04T13:32:48;0.50;;;0.50;;
5900;SDS011;2976;49.764;9.796;2024-02-04T13:35:13;0.50;;;0.50;;
5900;SDS011;2976;49.764;9.796;2024-02-04T13:37:41;0.73;;;0.50;;
5900;SDS011;2976;49.764;9.796;2024-02-04T13:40:18;0.60;;;0.60;;
5900;SDS011;2976;49.764;9.796;2024-02-04T13:42:44;0.40;;;0.40;;
5900;SDS011;2976;49.764;9.796;2024-02-04T13:45:11;0.50;;;0.50;;
5900;SDS011;2976;49.764;9.796;2024-02-04T13:47:40;0.40;;;0.40;;
5900;SDS011;2976;49.764;9.796;2024-02-04T13:50:06;0.50;;;0.50;;
5900;SDS011;2976;49.764;9.796;2024-02-04T13:52:33;0.50;;;0.50;;
5900;SDS011;2976;49.764;9.796;2024-02-04T13:55:02;0.60;;;0.60;;
5900;SDS011;2976;49.764;9.796;2024-02-04T13:57:32;0.60;;;0.60;;
5900;SDS011;2976;49.764;9.796;2024-02-04T13:59:58;0.63;;;0.40;;
5900;SDS011;2976;49.764;9.796;2024-02-04T14:02:23;5.53;;;0.70;;
5900;SDS011;2976;49.764;9.796;2024-02-04T14:04:51;1.23;;;0.80;;
5900;SDS011;2976;49.764;9.796;2024-02-04T14:07:17;1.47;;;0.60;;
5900;SDS011;2976;49.764;9.796;2024-02-04T14:09:43;0.73;;;0.70;;
5900;SDS011;2976;49.764;9.796;2024-02-04T14:12:09;0.57;;;0.50;;
5900;SDS011;2976;49.764;9.796;2024-02-04T14:14:36;0.50;;;0.50;;
5900;SDS011;2976;49.764;9.796;2024-02-04T14:17:02;1.83;;;0.43;;
5900;SDS011;2976;49.764;9.796;2024-02-04T14:19:28;0.43;;;0.40;;
5900;SDS011;2976;49.764;9.796;2024-02-04T14:21:53;1.90;;;0.63;;
5900;SDS011;2976;49.764;9.796;2024-02-04T14:24:19;1.57;;;0.50;;
5900;SDS011;2976;49.764;9.796;2024-02-04T14:26:45;0.60;;;0.50;;
5900;SDS011;2976;49.764;9.796;2024-02-04T14:29:10;0.50;;;0.50;;
5900;SDS011;2976;49.764;9.796;2024-02-04T14:31:36;1.37;;;0.40;;
5900;SDS011;2976;49.764;9.796;2024-02-04T14:34:01;0.60;;;0.60;;
5900;SDS011;2976;49.764;9.796;2024-02-04T14:36:27;0.50;;;0.50;;
5900;SDS011;2976;49.764;9.796;2024-02-04T14:38:53;1.17;;;0.60;;
5900;SDS011;2976;49.764;9.796;2024-02-04T14:41:18;0.50;;;0.50;;
5900;SDS011;2976;49.764;9.796;2024-02-04T14:43:44;1.17;;;0.40;;
5900;SDS011;2976;49.764;9.796;2024-02-04T14:46:10;0.40;;;0.40;;
5900;SDS011;2976;49.764;9.796;2024-02-04T14:48:35;0.40;;;0.40;;
5900;SDS011;2976;49.764;9.796;2024-02-04T14:51:02;0.50;;;0.50;;
5900;SDS011;2976;49.764;9.796;2024-02-04T14:53:28;0.50;;;0.50;;
5900;SDS011;2976;49.764;9.796;2024-02-04T14:55:53;0.77;;;0.50;;
5900;SDS011;2976;49.764;9.796;2024-02-04T14:58:21;1.37;;;0.47;;
5900;SDS011;2976;49.764;9.796;2024-02-04T15:00:47;0.63;;;0.63;;
5900;SDS011;2976;49.764;9.796;2024-02-04T15:03:13;1.10;;;0.60;;
5900;SDS011;2976;49.764;9.796;2024-02-04T15:05:39;3.03;;;0.60;;
5900;SDS011;2976;49.764;9.796;2024-02-04T15:08:06;0.50;;;0.50;;
5900;SDS011;2976;49.764;9.796;2024-02-04T15:10:32;0.60;;;0.60;;
5900;SDS011;2976;49.764;9.796;2024-02-04T15:12:58;0.50;;;0.50;;
5900;SDS011;2976;49.764;9.796;2024-02-04T15:15:24;0.60;;;0.60;;
5900;SDS011;2976;49.764;9.796;2024-02-04T15:17:50;0.90;;;0.73;;
5900;SDS011;2976;49.764;9.796;2024-02-04T15:20:16;0.63;;;0.63;;
5900;SDS011;2976;49.764;9.796;2024-02-04T15:22:42;0.63;;;0.63;;
5900;SDS011;2976;49.764;9.796;2024-02-04T15:25:08;0.47;;;0.47;;